createdAt,value
2022-12-08T00:00:09.211Z,20.9
2022-12-08T00:01:11.577Z,20.9
2022-12-08T00:02:14.740Z,20.9
2022-12-08T00:03:19.067Z,20.9
2022-12-08T00:04:21.665Z,20.9
2022-12-08T00:05:23.871Z,20.9
2022-12-08T00:06:25.782Z,20.9
2022-12-08T00:07:28.191Z,20.9
2022-12-08T00:08:29.827Z,20.9
2022-12-08T00:11:42.005Z,20.9
2022-12-08T00:12:44.481Z,21
2022-12-08T00:13:47.265Z,21
2022-12-08T00:14:49.741Z,21
2022-12-08T00:15:51.962Z,21
2022-12-08T00:16:54.106Z,21
2022-12-08T00:17:57.066Z,21
2022-12-08T00:18:59.597Z,21
2022-12-08T00:20:01.798Z,21
2022-12-08T00:21:04.272Z,21
2022-12-08T00:22:06.785Z,21
2022-12-08T00:23:08.695Z,21
2022-12-08T00:24:10.893Z,21.1
2022-12-08T00:25:13.092Z,21.1
2022-12-08T00:26:15.581Z,21
2022-12-08T00:27:17.767Z,21.1
2022-12-08T00:28:20.253Z,21
2022-12-08T00:29:22.474Z,21.1
2022-12-08T00:30:24.678Z,21.1
2022-12-08T00:31:27.354Z,21.1
2022-12-08T00:32:30.005Z,21.1
2022-12-08T00:33:32.599Z,21.1
2022-12-08T00:34:35.189Z,21.1
2022-12-08T00:36:42.383Z,21.1
2022-12-08T00:37:44.584Z,21.1
2022-12-08T00:38:47.071Z,21.2
2022-12-08T00:39:49.550Z,21.2
2022-12-08T00:40:51.743Z,21.2
2022-12-08T00:41:53.951Z,21.2
2022-12-08T00:42:56.155Z,21.2
2022-12-08T00:43:58.628Z,21.2
2022-12-08T00:45:00.575Z,21.2
2022-12-08T00:46:03.279Z,21.2
2022-12-08T00:47:06.127Z,21.2
2022-12-08T00:48:08.606Z,21.2
2022-12-08T00:49:10.587Z,21.2
2022-12-08T00:50:13.123Z,21.2
2022-12-08T00:51:15.614Z,21.2
2022-12-08T00:52:17.540Z,21.2
2022-12-08T00:53:20.042Z,21.2
2022-12-08T00:54:22.514Z,21.2
2022-12-08T00:55:25.023Z,21.2
2022-12-08T00:56:27.511Z,21.2
2022-12-08T00:57:29.718Z,21.2
2022-12-08T00:58:32.192Z,21.2
2022-12-08T00:59:34.418Z,21.2
2022-12-08T01:00:36.930Z,21.3
2022-12-08T01:01:39.645Z,21.3
2022-12-08T01:02:42.512Z,21.3
2022-12-08T01:03:45.214Z,21.3
2022-12-08T01:04:48.035Z,21.3
2022-12-08T01:05:50.558Z,21.3
2022-12-08T01:06:53.026Z,21.3
2022-12-08T01:07:55.496Z,21.3
2022-12-08T01:08:57.362Z,21.3
2022-12-08T01:09:59.575Z,21.3
2022-12-08T01:11:02.101Z,21.3
2022-12-08T01:12:04.035Z,21.3
2022-12-08T01:13:06.518Z,21.3
2022-12-08T01:14:09.004Z,21.3
2022-12-08T01:15:11.198Z,21.3
2022-12-08T01:16:13.908Z,21.3
2022-12-08T01:17:16.522Z,21.3
2022-12-08T01:18:19.035Z,21.3
2022-12-08T01:19:20.953Z,21.3
2022-12-08T01:20:23.238Z,21.3
2022-12-08T01:21:25.753Z,21.3
2022-12-08T01:22:27.971Z,21.3
2022-12-08T01:23:30.220Z,21.3
2022-12-08T01:24:32.707Z,21.3
2022-12-08T01:25:35.202Z,21.3
2022-12-08T01:26:37.698Z,21.3
2022-12-08T01:27:40.179Z,21.3
2022-12-08T01:28:42.677Z,21.3
2022-12-08T01:29:45.169Z,21.4
2022-12-08T01:30:47.866Z,21.4
2022-12-08T01:31:50.228Z,21.4
2022-12-08T01:32:52.707Z,21.4
2022-12-08T01:33:55.186Z,21.4
2022-12-08T01:34:57.664Z,21.4
2022-12-08T01:36:00.233Z,21.4
2022-12-08T01:37:02.485Z,21.3
2022-12-08T01:38:04.970Z,21.3
2022-12-08T01:39:07.439Z,21.3
2022-12-08T01:40:09.934Z,21.3
2022-12-08T01:41:12.492Z,21.3
2022-12-08T01:42:14.973Z,21.3
2022-12-08T01:43:17.446Z,21.3
2022-12-08T01:44:19.622Z,21.3
2022-12-08T01:45:22.101Z,21.3
2022-12-08T01:46:24.254Z,21.3
2022-12-08T01:47:26.956Z,21.3
2022-12-08T01:48:29.297Z,21.3
2022-12-08T01:49:31.775Z,21.3
2022-12-08T01:50:33.716Z,21.4
2022-12-08T01:51:35.971Z,21.4
2022-12-08T01:52:38.509Z,21.4
2022-12-08T01:53:40.982Z,21.4
2022-12-08T01:54:43.571Z,21.4
2022-12-08T01:55:46.056Z,21.4
2022-12-08T01:56:48.255Z,21.4
2022-12-08T01:57:50.736Z,21.4
2022-12-08T01:58:52.938Z,21.4
2022-12-08T01:59:55.419Z,21.4
2022-12-08T02:00:57.753Z,21.4
2022-12-08T02:02:00.498Z,21.4
2022-12-08T02:03:03.571Z,21.4
2022-12-08T02:04:06.384Z,21.4
2022-12-08T02:05:08.323Z,21.3
2022-12-08T02:06:10.796Z,21.3
2022-12-08T02:07:13.358Z,21.3
2022-12-08T02:08:16.053Z,21.3
2022-12-08T02:09:18.569Z,21.3
2022-12-08T02:10:20.764Z,21.3
2022-12-08T02:11:22.971Z,21.3
2022-12-08T02:12:25.171Z,21.4
2022-12-08T02:13:27.650Z,21.4
2022-12-08T02:14:29.854Z,21.4
2022-12-08T02:15:32.531Z,21.4
2022-12-08T02:16:34.909Z,21.4
2022-12-08T02:17:37.089Z,21.4
2022-12-08T02:18:39.567Z,21.4
2022-12-08T02:19:41.768Z,21.4
2022-12-08T02:20:44.232Z,21.4
2022-12-08T02:21:46.726Z,21.4
2022-12-08T02:22:49.263Z,21.4
2022-12-08T02:23:51.781Z,21.4
2022-12-08T02:24:54.254Z,21.4
2022-12-08T02:25:56.188Z,21.4
2022-12-08T02:26:58.098Z,21.4
2022-12-08T02:28:00.582Z,21.4
2022-12-08T02:29:02.797Z,21.4
2022-12-08T02:30:06.604Z,21.4
2022-12-08T02:31:09.954Z,21.4
2022-12-08T02:32:12.671Z,21.3
2022-12-08T02:33:14.898Z,21.3
2022-12-08T02:34:17.105Z,21.4
2022-12-08T02:35:19.592Z,21.4
2022-12-08T02:36:21.501Z,21.4
2022-12-08T02:37:23.991Z,21.4
2022-12-08T02:38:26.512Z,21.4
2022-12-08T02:39:29.045Z,21.4
2022-12-08T02:40:31.522Z,21.4
2022-12-08T02:41:34.018Z,21.4
2022-12-08T02:42:35.935Z,21.4
2022-12-08T02:43:38.423Z,21.4
2022-12-08T02:44:40.898Z,21.4
2022-12-08T02:45:43.113Z,21.5
2022-12-08T02:46:45.609Z,21.5
2022-12-08T02:47:47.783Z,21.5
2022-12-08T02:48:50.002Z,21.5
2022-12-08T02:49:52.244Z,21.4
2022-12-08T02:50:54.162Z,21.4
2022-12-08T02:51:56.092Z,21.4
2022-12-08T02:52:58.580Z,21.4
2022-12-08T02:54:01.184Z,21.4
2022-12-08T02:55:03.449Z,21.4
2022-12-08T02:56:05.389Z,21.4
2022-12-08T02:57:07.867Z,21.4
2022-12-08T02:58:10.071Z,21.4
2022-12-08T02:59:12.270Z,21.4
2022-12-08T03:00:14.776Z,21.4
2022-12-08T03:01:17.434Z,21.4
2022-12-08T03:02:20.417Z,21.4
2022-12-08T03:03:22.803Z,21.4
2022-12-08T03:04:25.033Z,21.4
2022-12-08T03:05:27.511Z,21.4
2022-12-08T03:06:30.002Z,21.5
2022-12-08T03:07:32.230Z,21.5
2022-12-08T03:08:34.729Z,21.5
2022-12-08T03:09:37.025Z,21.5
2022-12-08T03:10:39.542Z,21.5
2022-12-08T03:11:41.730Z,21.5
2022-12-08T03:12:44.207Z,21.5
2022-12-08T03:13:46.151Z,21.5
2022-12-08T03:14:48.371Z,21.5
2022-12-08T03:15:51.047Z,21.5
2022-12-08T03:16:53.680Z,21.5
2022-12-08T03:17:55.892Z,21.5
2022-12-08T03:18:57.525Z,21.4
2022-12-08T03:20:00.021Z,21.4
2022-12-08T03:21:02.579Z,21.4
2022-12-08T03:22:05.056Z,21.4
2022-12-08T03:23:06.731Z,21.4
2022-12-08T03:24:08.913Z,21.4
2022-12-08T03:25:11.213Z,21.4
2022-12-08T03:26:13.455Z,21.4
2022-12-08T03:27:15.385Z,21.4
2022-12-08T03:28:18.030Z,21.4
2022-12-08T03:29:20.507Z,21.4
2022-12-08T03:30:23.067Z,21.5
2022-12-08T03:31:25.747Z,21.5
2022-12-08T03:32:28.174Z,21.5
2022-12-08T03:33:30.668Z,21.5
2022-12-08T03:34:33.163Z,21.5
2022-12-08T03:35:35.672Z,21.5
2022-12-08T03:36:38.164Z,21.5
2022-12-08T03:37:40.648Z,21.5
2022-12-08T03:38:42.576Z,21.5
2022-12-08T03:39:44.787Z,21.5
2022-12-08T03:40:47.342Z,21.5
2022-12-08T03:41:49.871Z,21.5
2022-12-08T03:42:51.811Z,21.5
2022-12-08T03:43:54.015Z,21.5
2022-12-08T03:44:56.213Z,21.4
2022-12-08T03:45:57.964Z,21.4
2022-12-08T03:47:00.557Z,21.4
2022-12-08T03:48:02.766Z,21.4
2022-12-08T03:49:05.254Z,21.4
2022-12-08T03:50:08.106Z,21.4
2022-12-08T03:51:10.319Z,21.5
2022-12-08T03:52:12.524Z,21.5
2022-12-08T03:53:14.746Z,21.5
2022-12-08T03:54:17.220Z,21.5
2022-12-08T03:55:19.129Z,21.5
2022-12-08T03:56:21.674Z,21.5
2022-12-08T03:57:24.225Z,21.5
2022-12-08T03:58:26.709Z,21.5
2022-12-08T03:59:33.654Z,21.5
2022-12-08T04:00:36.150Z,21.5
2022-12-08T04:01:38.744Z,21.5
2022-12-08T04:02:41.603Z,21.5
2022-12-08T04:03:44.033Z,21.5
2022-12-08T04:04:46.313Z,21.5
2022-12-08T04:05:48.802Z,21.5
2022-12-08T04:06:50.982Z,21.5
2022-12-08T04:07:53.396Z,21.4
2022-12-08T04:08:55.523Z,21.4
2022-12-08T04:09:57.465Z,21.4
2022-12-08T04:10:59.665Z,21.4
2022-12-08T04:12:02.211Z,21.4
2022-12-08T04:13:04.747Z,21.4
2022-12-08T04:14:06.688Z,21.4
2022-12-08T04:15:08.906Z,21.4
2022-12-08T04:16:11.573Z,21.4
2022-12-08T04:17:13.931Z,21.3
2022-12-08T04:18:16.135Z,21.3
2022-12-08T04:19:18.625Z,21.3
2022-12-08T04:20:21.109Z,21.3
2022-12-08T04:21:23.590Z,21.3
2022-12-08T04:22:26.541Z,21.3
2022-12-08T04:23:29.139Z,21.3
2022-12-08T04:24:31.348Z,21.3
2022-12-08T04:25:33.570Z,21.3
2022-12-08T04:26:35.493Z,21.3
2022-12-08T04:27:38.033Z,21.3
2022-12-08T04:28:40.562Z,21.3
2022-12-08T04:29:42.790Z,21.3
2022-12-08T04:30:45.288Z,21.3
2022-12-08T04:31:47.687Z,21.3
2022-12-08T04:32:50.131Z,21.3
2022-12-08T04:33:52.060Z,21.3
2022-12-08T04:34:54.554Z,21.3
2022-12-08T04:35:56.745Z,21.2
2022-12-08T04:36:58.677Z,21.3
2022-12-08T04:38:01.162Z,21.2
2022-12-08T04:39:03.649Z,21.2
2022-12-08T04:40:06.940Z,21.2
2022-12-08T04:41:09.833Z,21.2
2022-12-08T04:42:12.053Z,21.2
2022-12-08T04:43:14.036Z,21.2
2022-12-08T04:44:16.589Z,21.2
2022-12-08T04:45:19.109Z,21.2
2022-12-08T04:46:21.919Z,21.2
2022-12-08T04:47:24.591Z,21.2
2022-12-08T04:48:27.074Z,21.2
2022-12-08T04:49:29.552Z,21.2
2022-12-08T04:50:31.468Z,21.2
2022-12-08T04:51:33.947Z,21.2
2022-12-08T04:52:35.890Z,21.2
2022-12-08T04:54:43.070Z,21.2
2022-12-08T04:55:45.551Z,21.2
2022-12-08T04:56:48.031Z,21.2
2022-12-08T04:57:50.229Z,21.2
2022-12-08T04:58:52.770Z,21.2
2022-12-08T04:59:55.276Z,21.2
2022-12-08T05:00:57.904Z,21.2
2022-12-08T05:02:01.160Z,21.2
2022-12-08T05:03:04.549Z,21.2
2022-12-08T05:04:07.274Z,21.2
2022-12-08T05:05:09.853Z,21.2
2022-12-08T05:06:12.335Z,21.2
2022-12-08T05:07:14.631Z,21.2
2022-12-08T05:08:17.107Z,21.2
2022-12-08T05:09:19.755Z,21.2
2022-12-08T05:10:21.969Z,21.1
2022-12-08T05:11:24.207Z,21.1
2022-12-08T05:12:26.722Z,21.1
2022-12-08T05:13:29.216Z,21.1
2022-12-08T05:14:31.508Z,21.2
2022-12-08T05:15:34.028Z,21.1
2022-12-08T05:16:36.435Z,21.1
2022-12-08T05:17:38.960Z,21.1
2022-12-08T05:18:40.889Z,21.1
2022-12-08T05:19:43.405Z,21.1
2022-12-08T05:20:45.878Z,21.1
2022-12-08T05:21:47.808Z,21.1
2022-12-08T05:22:50.024Z,21.1
2022-12-08T05:23:51.937Z,21.1
2022-12-08T05:24:54.407Z,21.1
2022-12-08T05:25:56.335Z,21.1
2022-12-08T05:26:58.814Z,21.1
2022-12-08T05:29:06.017Z,21.1
2022-12-08T05:30:08.623Z,21.1
2022-12-08T05:31:11.429Z,21.1
2022-12-08T05:32:13.042Z,21.1
2022-12-08T05:33:15.524Z,21.1
2022-12-08T05:34:17.739Z,21.1
2022-12-08T05:35:20.224Z,21.1
2022-12-08T05:36:22.717Z,21.1
2022-12-08T05:37:24.656Z,21.1
2022-12-08T05:38:27.131Z,21.1
2022-12-08T05:39:29.686Z,21.1
2022-12-08T05:40:31.900Z,21.1
2022-12-08T05:41:34.101Z,21.1
2022-12-08T05:42:36.571Z,21.1
2022-12-08T05:43:38.788Z,21.1
2022-12-08T05:44:41.359Z,21.1
2022-12-08T05:45:44.129Z,21.1
2022-12-08T05:46:47.027Z,21.1
2022-12-08T05:47:49.246Z,21.1
2022-12-08T05:48:51.735Z,21.1
2022-12-08T05:49:54.258Z,21.1
2022-12-08T05:50:56.469Z,21.1
2022-12-08T05:51:58.679Z,21.1
2022-12-08T05:53:01.159Z,21.1
2022-12-08T05:54:03.645Z,21.1
2022-12-08T05:55:05.850Z,21.1
2022-12-08T05:56:08.454Z,21.1
2022-12-08T05:57:10.955Z,21.1
2022-12-08T05:58:13.439Z,21.1
2022-12-08T05:59:15.938Z,21
2022-12-08T06:00:18.171Z,21.1
2022-12-08T06:01:20.743Z,21.1
2022-12-08T06:02:23.855Z,21
2022-12-08T06:03:26.963Z,21
2022-12-08T06:04:29.743Z,21
2022-12-08T06:05:32.228Z,21
2022-12-08T06:06:34.730Z,21
2022-12-08T06:07:37.316Z,21
2022-12-08T06:08:39.714Z,21
2022-12-08T06:09:41.916Z,21
2022-12-08T06:10:44.236Z,21
2022-12-08T06:11:46.442Z,21
2022-12-08T06:12:48.933Z,21
2022-12-08T06:13:51.421Z,21
2022-12-08T06:14:53.638Z,21
2022-12-08T06:15:56.150Z,21
2022-12-08T06:16:58.961Z,21
2022-12-08T06:18:01.728Z,21
2022-12-08T06:19:03.664Z,21
2022-12-08T06:20:06.697Z,21
2022-12-08T06:21:09.412Z,21
2022-12-08T06:22:11.614Z,21
2022-12-08T06:23:14.104Z,21
2022-12-08T06:24:16.596Z,21
2022-12-08T06:25:18.514Z,21
2022-12-08T06:26:20.716Z,21
2022-12-08T06:27:23.210Z,21
2022-12-08T06:28:25.437Z,21
2022-12-08T06:29:27.416Z,21
2022-12-08T06:30:29.913Z,21
2022-12-08T06:31:32.413Z,21
2022-12-08T06:32:35.151Z,21
2022-12-08T06:33:37.767Z,21
2022-12-08T06:34:40.261Z,21
2022-12-08T06:35:42.748Z,21
2022-12-08T06:36:45.250Z,21
2022-12-08T06:37:47.441Z,21
2022-12-08T06:38:49.685Z,21
2022-12-08T06:39:51.925Z,21
2022-12-08T06:40:53.851Z,21
2022-12-08T06:41:56.073Z,21
2022-12-08T06:42:58.281Z,21
2022-12-08T06:43:59.921Z,21
2022-12-08T06:45:02.421Z,21
2022-12-08T06:46:04.572Z,21
2022-12-08T06:47:06.714Z,21
2022-12-08T06:48:08.989Z,21
2022-12-08T06:49:11.519Z,21
2022-12-08T06:50:14.035Z,21
2022-12-08T06:51:16.627Z,21
2022-12-08T06:52:19.186Z,21
2022-12-08T06:53:21.100Z,21
2022-12-08T06:54:23.323Z,21
2022-12-08T06:56:30.781Z,21
2022-12-08T06:57:33.265Z,21
2022-12-08T06:58:35.769Z,21
2022-12-08T06:59:37.686Z,21
2022-12-08T07:00:39.628Z,21
2022-12-08T07:01:42.121Z,21
2022-12-08T07:02:45.404Z,21
2022-12-08T07:03:48.310Z,21
2022-12-08T07:04:50.608Z,21
2022-12-08T07:05:52.867Z,21
2022-12-08T07:06:54.832Z,21
2022-12-08T07:07:57.339Z,21
2022-12-08T07:09:00.083Z,21
2022-12-08T07:10:03.892Z,21
2022-12-08T07:11:06.969Z,21
2022-12-08T07:12:09.476Z,21
2022-12-08T07:13:11.701Z,21
2022-12-08T07:14:13.644Z,21
2022-12-08T07:15:16.223Z,21
2022-12-08T07:16:18.742Z,21
2022-12-08T07:17:21.213Z,21
2022-12-08T07:18:23.715Z,21
2022-12-08T07:19:26.285Z,21
2022-12-08T07:20:29.253Z,21
2022-12-08T07:21:31.910Z,21
2022-12-08T07:22:34.403Z,21
2022-12-08T07:23:36.918Z,21
2022-12-08T07:24:53.821Z,21
2022-12-08T07:25:56.291Z,21
2022-12-08T07:26:58.765Z,21
2022-12-08T07:28:00.431Z,21
2022-12-08T07:29:02.925Z,21
2022-12-08T07:30:06.152Z,21
2022-12-08T07:31:09.281Z,21
2022-12-08T07:32:12.008Z,21
2022-12-08T07:33:14.206Z,21
2022-12-08T07:34:16.711Z,21
2022-12-08T07:35:19.287Z,21
2022-12-08T07:36:21.821Z,21
2022-12-08T07:37:24.071Z,21
2022-12-08T07:38:26.565Z,21
2022-12-08T07:39:29.055Z,21
2022-12-08T07:40:31.531Z,21
2022-12-08T07:41:33.752Z,21
2022-12-08T07:42:36.230Z,21
2022-12-08T07:43:38.450Z,21
2022-12-08T07:44:40.929Z,21
2022-12-08T07:45:43.183Z,21
2022-12-08T07:46:46.079Z,21
2022-12-08T07:47:48.615Z,21
2022-12-08T07:48:51.111Z,21
2022-12-08T07:49:53.340Z,21
2022-12-08T07:50:55.922Z,21
2022-12-08T07:51:58.193Z,21
2022-12-08T07:53:00.841Z,21
2022-12-08T07:54:03.067Z,21
2022-12-08T07:55:05.554Z,21
2022-12-08T07:56:08.044Z,21
2022-12-08T07:57:10.274Z,21
2022-12-08T07:58:12.750Z,21
2022-12-08T07:59:14.990Z,21
2022-12-08T08:00:17.474Z,21
2022-12-08T08:01:20.037Z,21
2022-12-08T08:03:27.807Z,21
2022-12-08T08:04:30.225Z,21
2022-12-08T08:05:32.911Z,21
2022-12-08T08:06:35.481Z,21
2022-12-08T08:07:38.200Z,21
2022-12-08T08:08:39.992Z,21
2022-12-08T08:09:42.475Z,21
2022-12-08T08:10:44.696Z,21
2022-12-08T08:12:52.163Z,21
2022-12-08T08:13:54.691Z,21
2022-12-08T08:14:57.196Z,21
2022-12-08T08:15:59.947Z,21
2022-12-08T08:17:03.032Z,21
2022-12-08T08:18:05.433Z,21
2022-12-08T08:19:07.638Z,21
2022-12-08T08:20:09.852Z,21
2022-12-08T08:22:17.158Z,21
2022-12-08T08:23:19.718Z,21
2022-12-08T08:24:21.954Z,21
2022-12-08T08:25:24.458Z,21
2022-12-08T08:26:26.975Z,21
2022-12-08T08:27:29.187Z,21
2022-12-08T08:28:31.166Z,21
2022-12-08T08:29:33.656Z,21
2022-12-08T08:30:36.255Z,21
2022-12-08T08:31:39.084Z,21
2022-12-08T08:32:41.974Z,21
2022-12-08T08:33:44.453Z,21
2022-12-08T08:34:46.397Z,21
2022-12-08T08:35:48.314Z,21
2022-12-08T08:36:50.151Z,21
2022-12-08T08:37:52.987Z,21
2022-12-08T08:38:55.240Z,21
2022-12-08T08:39:57.155Z,21
2022-12-08T08:40:59.660Z,21
2022-12-08T08:42:02.376Z,21
2022-12-08T08:43:04.286Z,21
2022-12-08T08:44:06.784Z,21
2022-12-08T08:45:09.019Z,21
2022-12-08T08:46:11.557Z,21
2022-12-08T08:47:13.943Z,21
2022-12-08T08:48:15.870Z,21
2022-12-08T08:49:18.379Z,21
2022-12-08T08:50:20.612Z,21
2022-12-08T08:51:22.546Z,21
2022-12-08T08:52:25.028Z,21
2022-12-08T08:53:27.623Z,21
2022-12-08T08:54:30.187Z,21
2022-12-08T08:55:32.406Z,21
2022-12-08T08:56:34.612Z,21
2022-12-08T08:57:36.526Z,21
2022-12-08T08:58:38.713Z,21
2022-12-08T08:59:40.945Z,21
2022-12-08T09:00:43.437Z,21
2022-12-08T09:01:45.955Z,21
2022-12-08T09:02:48.366Z,21
2022-12-08T09:03:50.561Z,21
2022-12-08T09:04:53.297Z,21
2022-12-08T09:05:56.283Z,21
2022-12-08T09:06:59.022Z,21
2022-12-08T09:08:01.741Z,21
2022-12-08T09:09:04.490Z,21
2022-12-08T09:10:07.874Z,21
2022-12-08T09:11:10.871Z,21
2022-12-08T09:12:13.366Z,21
2022-12-08T09:13:15.584Z,21
2022-12-08T09:14:17.797Z,21
2022-12-08T09:15:20.031Z,21
2022-12-08T09:16:22.814Z,21
2022-12-08T09:17:24.963Z,21
2022-12-08T09:18:27.450Z,21
2022-12-08T09:19:29.394Z,21
2022-12-08T09:20:31.655Z,21
2022-12-08T09:21:33.933Z,21
2022-12-08T09:22:35.865Z,21
2022-12-08T09:23:38.084Z,21
2022-12-08T09:24:40.682Z,21
2022-12-08T09:25:42.924Z,21
2022-12-08T09:26:45.158Z,21
2022-12-08T09:27:47.388Z,21
2022-12-08T09:28:49.611Z,21
2022-12-08T09:29:52.101Z,21
2022-12-08T09:30:54.766Z,21
2022-12-08T09:31:57.472Z,21
2022-12-08T09:32:59.997Z,21
2022-12-08T09:34:02.553Z,21
2022-12-08T09:35:05.093Z,21
2022-12-08T09:36:06.755Z,21
2022-12-08T09:37:09.309Z,21
2022-12-08T09:38:11.304Z,21
2022-12-08T09:39:13.797Z,21
2022-12-08T09:40:16.152Z,21
2022-12-08T09:41:18.770Z,21
2022-12-08T09:42:20.718Z,21
2022-12-08T09:43:23.292Z,20.9
2022-12-08T09:44:25.522Z,21
2022-12-08T09:45:27.780Z,21
2022-12-08T09:46:30.010Z,20.9
2022-12-08T09:48:37.682Z,20.9
2022-12-08T09:49:39.349Z,20.9
2022-12-08T09:50:41.589Z,20.9
2022-12-08T09:51:44.097Z,20.9
2022-12-08T09:52:46.246Z,20.9
2022-12-08T09:53:49.349Z,20.9
2022-12-08T09:54:51.906Z,20.9
2022-12-08T09:55:54.177Z,20.9
2022-12-08T09:56:56.428Z,20.9
2022-12-08T09:57:59.177Z,20.9
2022-12-08T09:59:01.654Z,20.9
2022-12-08T10:00:05.170Z,20.9
2022-12-08T10:01:08.985Z,20.9
2022-12-08T10:02:11.669Z,20.9
2022-12-08T10:04:19.476Z,20.9
2022-12-08T10:05:22.027Z,20.9
2022-12-08T10:06:24.508Z,20.9
2022-12-08T10:07:26.216Z,20.9
2022-12-08T10:08:29.011Z,20.9
2022-12-08T10:09:31.853Z,20.9
2022-12-08T10:10:34.353Z,20.9
2022-12-08T10:11:36.636Z,20.9
2022-12-08T10:12:39.160Z,20.9
2022-12-08T10:13:41.371Z,20.9
2022-12-08T10:14:43.874Z,20.9
2022-12-08T10:15:46.710Z,20.9
2022-12-08T10:16:49.188Z,20.9
2022-12-08T10:17:51.924Z,20.9
2022-12-08T10:18:54.449Z,20.9
2022-12-08T10:19:56.405Z,20.9
2022-12-08T10:20:58.603Z,21
2022-12-08T10:22:01.095Z,20.9
2022-12-08T10:23:03.027Z,20.9
2022-12-08T10:24:05.242Z,20.9
2022-12-08T10:25:07.734Z,20.9
2022-12-08T10:26:09.960Z,21
2022-12-08T10:27:12.250Z,20.9
2022-12-08T10:28:14.805Z,20.9
2022-12-08T10:29:17.342Z,20.9
2022-12-08T10:30:20.003Z,21
2022-12-08T10:31:22.603Z,20.9
2022-12-08T10:32:25.398Z,21
2022-12-08T10:33:27.886Z,21
2022-12-08T10:34:30.390Z,20.9
2022-12-08T10:35:32.897Z,20.9
2022-12-08T10:36:35.374Z,20.9
2022-12-08T10:37:37.859Z,20.9
2022-12-08T10:38:40.070Z,20.9
2022-12-08T10:39:42.587Z,20.9
2022-12-08T10:40:46.837Z,20.9
2022-12-08T10:41:49.331Z,20.9
2022-12-08T10:42:51.977Z,20.9
2022-12-08T10:43:54.231Z,20.9
2022-12-08T10:44:56.450Z,20.9
2022-12-08T10:45:58.937Z,20.9
2022-12-08T10:47:01.450Z,20.9
2022-12-08T10:48:04.159Z,20.9
2022-12-08T10:49:05.837Z,20.9
2022-12-08T10:50:08.865Z,20.9
2022-12-08T10:51:11.080Z,20.9
2022-12-08T10:52:13.559Z,20.9
2022-12-08T10:53:16.065Z,20.9
2022-12-08T10:55:23.263Z,20.9
2022-12-08T10:56:25.178Z,20.9
2022-12-08T10:57:27.815Z,20.9
2022-12-08T10:58:30.177Z,20.9
2022-12-08T10:59:32.934Z,20.9
2022-12-08T11:00:36.165Z,20.9
2022-12-08T11:01:39.063Z,20.9
2022-12-08T11:02:42.322Z,20.9
2022-12-08T11:03:44.731Z,20.9
2022-12-08T11:04:46.936Z,20.9
2022-12-08T11:05:49.164Z,20.9
2022-12-08T11:06:51.374Z,20.9
2022-12-08T11:07:54.176Z,20.9
2022-12-08T11:08:56.415Z,20.9
2022-12-08T11:09:58.640Z,20.9
2022-12-08T11:11:00.560Z,20.9
2022-12-08T11:12:03.057Z,20.9
2022-12-08T11:13:05.280Z,20.9
2022-12-08T11:14:07.535Z,20.9
2022-12-08T11:15:10.132Z,20.9
2022-12-08T11:16:12.607Z,20.9
2022-12-08T11:17:15.077Z,20.9
2022-12-08T11:18:17.562Z,20.9
2022-12-08T11:19:19.507Z,20.9
2022-12-08T11:20:21.192Z,20.9
2022-12-08T11:21:23.676Z,20.9
2022-12-08T11:22:26.221Z,20.9
2022-12-08T11:23:28.450Z,20.9
2022-12-08T11:25:35.978Z,20.9
2022-12-08T11:26:38.163Z,20.9
2022-12-08T11:27:40.091Z,20.9
2022-12-08T11:28:42.025Z,20.9
2022-12-08T11:29:44.317Z,20.9
2022-12-08T11:30:46.866Z,20.9
2022-12-08T11:31:49.375Z,20.9
2022-12-08T11:32:52.011Z,20.9
2022-12-08T11:33:54.500Z,20.9
2022-12-08T11:34:56.724Z,20.9
2022-12-08T11:35:58.936Z,20.9
2022-12-08T11:37:01.428Z,20.9
2022-12-08T11:39:08.915Z,20.9
2022-12-08T11:40:11.135Z,20.9
2022-12-08T11:42:18.588Z,20.9
2022-12-08T11:43:20.802Z,20.9
2022-12-08T11:44:22.727Z,20.9
2022-12-08T11:45:25.316Z,20.9
2022-12-08T11:46:27.892Z,20.9
2022-12-08T11:47:30.312Z,20.9
2022-12-08T11:48:32.530Z,20.9
2022-12-08T11:49:35.034Z,20.9
2022-12-08T11:50:37.251Z,20.9
2022-12-08T11:51:39.735Z,20.9
2022-12-08T11:52:41.961Z,20.9
2022-12-08T11:53:44.444Z,20.9
2022-12-08T11:54:46.941Z,20.9
2022-12-08T11:55:51.243Z,20.9
2022-12-08T11:56:53.460Z,20.9
2022-12-08T11:57:55.294Z,20.9
2022-12-08T11:58:58.030Z,20.9
2022-12-08T12:00:00.226Z,20.9
2022-12-08T12:01:02.486Z,20.9
2022-12-08T12:02:05.265Z,20.9
2022-12-08T12:03:07.926Z,20.9
2022-12-08T12:04:10.253Z,20.9
2022-12-08T12:05:12.753Z,20.9
2022-12-08T12:08:26.838Z,20.9
2022-12-08T12:09:29.641Z,20.9
2022-12-08T12:10:32.124Z,20.9
2022-12-08T12:11:34.341Z,20.9
2022-12-08T12:13:41.834Z,20.9
2022-12-08T12:14:44.314Z,20.9
2022-12-08T12:15:46.537Z,20.9
2022-12-08T12:16:49.017Z,20.9
2022-12-08T12:17:51.846Z,20.9
2022-12-08T12:18:54.339Z,20.9
2022-12-08T12:19:56.825Z,20.9
2022-12-08T12:20:59.038Z,20.9
2022-12-08T12:22:01.226Z,20.9
2022-12-08T12:23:03.452Z,20.9
2022-12-08T12:24:05.967Z,20.9
2022-12-08T12:25:08.443Z,20.9
2022-12-08T12:26:10.936Z,20.9
2022-12-08T12:27:13.465Z,20.9
2022-12-08T12:28:15.881Z,20.9
2022-12-08T12:29:17.811Z,20.9
2022-12-08T12:30:20.052Z,20.9
2022-12-08T12:31:22.470Z,20.9
2022-12-08T12:32:24.784Z,20.9
2022-12-08T12:33:27.307Z,20.9
2022-12-08T12:34:29.804Z,20.9
2022-12-08T12:35:31.997Z,20.9
2022-12-08T12:36:33.954Z,20.9
2022-12-08T12:37:36.174Z,20.9
2022-12-08T12:38:38.685Z,20.9
2022-12-08T12:39:40.600Z,20.9
2022-12-08T12:40:43.079Z,20.9
2022-12-08T12:41:44.724Z,20.9
2022-12-08T12:42:46.654Z,20.9
2022-12-08T12:43:49.124Z,20.9
2022-12-08T12:44:51.345Z,20.9
2022-12-08T12:45:53.700Z,20.9
2022-12-08T12:46:56.084Z,20.9
2022-12-08T12:47:58.642Z,20.9
2022-12-08T12:49:00.890Z,20.9
2022-12-08T12:50:03.530Z,20.9
2022-12-08T12:51:06.608Z,20.9
2022-12-08T12:52:08.545Z,20.9
2022-12-08T12:54:15.734Z,20.9
2022-12-08T12:55:18.245Z,20.9
2022-12-08T12:56:20.459Z,20.9
2022-12-08T12:57:22.409Z,20.9
2022-12-08T12:58:24.353Z,20.9
2022-12-08T12:59:27.037Z,20.9
2022-12-08T13:00:29.536Z,20.9
2022-12-08T13:01:32.003Z,20.9
2022-12-08T13:02:34.947Z,20.9
2022-12-08T13:03:37.484Z,20.9
2022-12-08T13:04:39.767Z,20.9
2022-12-08T13:05:42.250Z,20.9
2022-12-08T13:06:44.735Z,20.9
2022-12-08T13:07:46.848Z,20.9
2022-12-08T13:08:48.994Z,20.9
2022-12-08T13:09:51.475Z,20.9
2022-12-08T13:10:53.960Z,20.9
2022-12-08T13:11:55.916Z,20.9
2022-12-08T13:12:58.418Z,20.9
2022-12-08T13:14:00.918Z,20.9
2022-12-08T13:15:03.172Z,20.9
2022-12-08T13:17:10.901Z,20.9
2022-12-08T13:18:13.894Z,20.9
2022-12-08T13:19:16.505Z,20.9
2022-12-08T13:20:18.788Z,20.9
2022-12-08T13:21:21.053Z,20.9
2022-12-08T13:22:23.372Z,20.9
2022-12-08T13:23:25.927Z,20.9
2022-12-08T13:24:28.141Z,20.9
2022-12-08T13:26:35.340Z,20.9
2022-12-08T13:27:37.551Z,20.9
2022-12-08T13:28:40.047Z,20.9
2022-12-08T13:29:42.541Z,20.9
2022-12-08T13:30:45.335Z,20.9
2022-12-08T13:33:57.812Z,20.9
2022-12-08T13:35:00.667Z,20.9
2022-12-08T13:36:03.217Z,20.9
2022-12-08T13:37:05.716Z,20.9
2022-12-08T13:38:08.205Z,20.9
2022-12-08T13:39:10.705Z,20.9
2022-12-08T13:40:13.202Z,20.9
2022-12-08T13:41:15.399Z,20.9
2022-12-08T13:42:17.896Z,20.9
2022-12-08T13:43:19.827Z,20.9
2022-12-08T13:58:00.573Z,20.9
2022-12-08T13:59:03.289Z,20.9
2022-12-08T14:00:05.493Z,20.9
2022-12-08T14:01:07.621Z,20.9
2022-12-08T14:02:10.233Z,20.9
2022-12-08T14:03:12.737Z,20.9
2022-12-08T14:06:25.384Z,20.9
2022-12-08T14:07:27.593Z,20.9
2022-12-08T14:09:35.113Z,20.9
2022-12-08T14:10:37.296Z,20.9
2022-12-08T14:11:39.490Z,20.9
2022-12-08T14:12:41.750Z,20.9
2022-12-08T14:13:44.274Z,20.9
2022-12-08T14:15:51.989Z,20.8
2022-12-08T14:16:54.018Z,20.9
2022-12-08T14:17:56.261Z,20.9
2022-12-08T14:18:58.474Z,20.9
2022-12-08T14:20:00.412Z,20.9
2022-12-08T14:22:07.916Z,20.9
2022-12-08T14:23:10.408Z,20.9
2022-12-08T14:24:12.336Z,20.9
2022-12-08T14:25:13.999Z,20.9
2022-12-08T14:26:15.968Z,20.9
2022-12-08T14:27:17.912Z,20.9
2022-12-08T14:28:20.162Z,20.9
2022-12-08T14:29:22.616Z,20.9
2022-12-08T14:30:25.064Z,20.9
2022-12-08T14:31:27.713Z,20.8
2022-12-08T14:32:30.357Z,20.9
2022-12-08T14:33:32.317Z,20.9
2022-12-08T14:34:34.825Z,20.9
2022-12-08T14:35:37.310Z,20.9
2022-12-08T14:36:39.525Z,20.9
2022-12-08T14:37:41.898Z,20.9
2022-12-08T14:38:44.683Z,20.9
2022-12-08T14:39:46.612Z,20.9
2022-12-08T14:40:49.153Z,20.9
2022-12-08T14:41:51.088Z,20.9
2022-12-08T14:42:53.581Z,20.9
2022-12-08T14:43:55.807Z,20.9
2022-12-08T14:44:58.032Z,20.9
2022-12-08T14:46:00.587Z,20.9
2022-12-08T14:48:08.393Z,20.9
2022-12-08T14:49:10.652Z,20.9
2022-12-08T14:50:13.160Z,20.9
2022-12-08T14:51:15.653Z,20.9